Time;durP1;ratioP1;P1;durP2;ratioP2;P2;SDS_P1;SDS_P2;PMS_P1;PMS_P2;Temp;Humidity;BMP_temperature;BMP_pressure;BME280_temperature;BME280_humidity;BME280_pressure;Samples;Min_cycle;Max_cycle;Signal;HPM_P1;HPM_P2
2022/03/19 00:00:15;;;;;;;76.60;32.60;;;0.00;67.30;;;;;;9825572;30;20064;-83
2022/03/19 00:05:16;;;;;;;85.07;33.77;;;-0.20;67.80;;;;;;9826101;30;20056;-83
2022/03/19 00:10:17;;;;;;;87.10;34.87;;;-0.30;68.60;;;;;;9828519;30;20502;-82
2022/03/19 00:15:17;;;;;;;91.07;32.87;;;-0.40;68.50;;;;;;9832464;30;20148;-82
2022/03/19 00:20:18;;;;;;;78.33;33.07;;;-0.50;68.90;;;;;;9832133;30;20048;-82
2022/03/19 00:25:19;;;;;;;79.33;33.70;;;-0.50;68.50;;;;;;9832147;30;20485;-82
2022/03/19 00:30:20;;;;;;;86.27;35.27;;;-0.50;69.40;;;;;;9831962;30;20474;-83
2022/03/19 00:35:21;;;;;;;83.10;32.07;;;-0.60;69.60;;;;;;9832078;30;20390;-82
2022/03/19 00:40:22;;;;;;;83.73;34.27;;;-0.70;69.40;;;;;;9832818;30;20055;-82
2022/03/19 00:45:23;;;;;;;76.37;32.90;;;-0.70;69.40;;;;;;9849775;30;20747;-82
2022/03/19 00:50:24;;;;;;;65.27;30.47;;;-0.80;70.20;;;;;;9859673;30;20031;-84
2022/03/19 00:55:25;;;;;;;73.83;29.53;;;-0.70;69.30;;;;;;9851237;30;20570;-84
2022/03/19 01:00:27;;;;;;;70.57;30.90;;;-0.70;68.30;;;;;;9863134;30;21517;-82
2022/03/19 01:05:28;;;;;;;71.23;31.40;;;-0.80;69.20;;;;;;9844926;30;20036;-83
2022/03/19 01:10:29;;;;;;;69.13;30.50;;;-0.90;69.10;;;;;;9829263;30;20044;-83
2022/03/19 01:15:31;;;;;;;76.17;30.17;;;-1.00;69.00;;;;;;9832128;30;20040;-84
2022/03/19 01:20:33;;;;;;;71.80;29.60;;;-1.00;69.10;;;;;;9831020;30;20075;-84
2022/03/19 01:25:34;;;;;;;72.00;28.27;;;-0.90;69.70;;;;;;9830121;30;20474;-84
2022/03/19 01:30:35;;;;;;;71.27;30.20;;;-0.90;68.80;;;;;;9830783;30;20039;-84
2022/03/19 01:35:35;;;;;;;71.13;30.60;;;-0.90;68.40;;;;;;9853729;30;20040;-85
2022/03/19 01:40:36;;;;;;;81.03;31.00;;;-0.80;68.20;;;;;;9866937;30;20048;-84
2022/03/19 01:45:37;;;;;;;77.10;30.73;;;-0.80;68.10;;;;;;9846726;30;20594;-84
2022/03/19 01:50:38;;;;;;;74.40;29.23;;;-1.00;69.60;;;;;;9829872;30;20040;-83
2022/03/19 01:55:39;;;;;;;74.63;30.87;;;-1.10;70.00;;;;;;9813433;30;20147;-83
2022/03/19 02:00:39;;;;;;;71.07;28.37;;;-1.20;69.90;;;;;;9829134;30;20134;-83
2022/03/19 02:05:40;;;;;;;60.63;27.53;;;-1.20;69.80;;;;;;9829933;30;20040;-82
2022/03/19 02:10:42;;;;;;;71.93;26.60;;;-1.20;69.70;;;;;;9829853;30;20079;-83
2022/03/19 02:15:45;;;;;;;63.70;26.27;;;-1.30;69.70;;;;;;9829250;30;20505;-83
2022/03/19 02:20:45;;;;;;;67.27;29.00;;;-1.30;70.40;;;;;;9828870;30;20044;-83
2022/03/19 02:25:49;;;;;;;63.97;26.53;;;-1.40;70.40;;;;;;9829361;30;20043;-83
2022/03/19 02:30:49;;;;;;;60.20;27.60;;;-1.40;69.20;;;;;;9812162;30;20042;-82
2022/03/19 02:35:50;;;;;;;68.17;29.50;;;-1.30;69.30;;;;;;9828350;30;20036;-82
2022/03/19 02:40:51;;;;;;;66.37;28.67;;;-1.30;69.30;;;;;;9828753;30;20048;-83
2022/03/19 02:45:51;;;;;;;73.83;29.70;;;-1.30;69.60;;;;;;9849671;30;20055;-82
2022/03/19 02:50:52;;;;;;;68.77;30.30;;;-1.30;69.80;;;;;;9865308;30;20043;-82
2022/03/19 02:55:53;;;;;;;66.67;29.33;;;-1.40;69.90;;;;;;9864668;30;20046;-83
2022/03/19 03:00:54;;;;;;;84.57;33.60;;;-1.40;69.70;;;;;;9848042;30;20082;-83
2022/03/19 03:05:54;;;;;;;74.37;31.00;;;-1.50;70.00;;;;;;9865161;30;20135;-82
2022/03/19 03:10:55;;;;;;;66.67;30.13;;;-1.50;70.10;;;;;;9863884;30;20110;-83
2022/03/19 03:15:57;;;;;;;81.63;33.87;;;-1.70;70.40;;;;;;9864545;30;20681;-83
2022/03/19 03:20:59;;;;;;;82.73;32.30;;;-1.70;70.60;;;;;;9863767;30;20122;-83
2022/03/19 03:26:00;;;;;;;74.37;32.50;;;-1.80;71.10;;;;;;9864873;30;20032;-83
2022/03/19 03:31:00;;;;;;;77.33;30.17;;;-1.80;71.40;;;;;;9863302;30;20044;-83
2022/03/19 03:36:01;;;;;;;78.07;34.73;;;-2.00;72.30;;;;;;9847289;30;20497;-83
2022/03/19 03:41:02;;;;;;;84.17;33.50;;;-2.00;73.20;;;;;;9864032;30;20846;-83
2022/03/19 03:46:04;;;;;;;71.33;31.53;;;-2.10;72.90;;;;;;9851723;30;20672;-82
2022/03/19 03:51:06;;;;;;;71.70;29.53;;;-2.10;73.50;;;;;;9870542;30;20043;-83
2022/03/19 03:56:11;;;;;;;70.67;29.43;;;-2.20;73.60;;;;;;9839158;30;20047;-83
2022/03/19 04:01:11;;;;;;;76.83;30.70;;;-2.20;73.00;;;;;;9870736;30;20044;-82
2022/03/19 04:06:12;;;;;;;74.47;29.33;;;-2.10;71.90;;;;;;9868858;30;20081;-83
2022/03/19 04:11:13;;;;;;;71.07;29.57;;;-2.00;71.40;;;;;;9853658;30;20053;-82
2022/03/19 04:16:13;;;;;;;66.20;31.43;;;-2.10;72.00;;;;;;9869889;30;20097;-83
2022/03/19 04:21:14;;;;;;;65.67;29.10;;;-2.20;72.40;;;;;;9869771;30;20139;-82
2022/03/19 04:26:15;;;;;;;70.83;29.70;;;-2.20;72.20;;;;;;9869909;30;20079;-83
2022/03/19 04:31:15;;;;;;;67.70;28.90;;;-2.30;72.90;;;;;;9853525;30;20042;-83
2022/03/19 04:36:32;;;;;;;71.63;29.03;;;-2.40;73.30;;;;;;9869641;30;20790;-82
2022/03/19 04:41:34;;;;;;;69.30;30.03;;;-2.40;73.30;;;;;;9868836;30;20047;-82
2022/03/19 04:46:35;;;;;;;70.53;27.53;;;-2.50;73.50;;;;;;9852192;30;20105;-83
2022/03/19 04:51:38;;;;;;;74.23;30.57;;;-2.50;73.40;;;;;;9868567;30;20143;-84
2022/03/19 04:56:38;;;;;;;66.70;28.93;;;-2.50;73.20;;;;;;9868657;30;20522;-83
2022/03/19 05:01:39;;;;;;;72.37;31.83;;;-2.50;73.90;;;;;;9867438;30;20051;-83
2022/03/19 05:06:40;;;;;;;70.23;29.10;;;-2.50;74.10;;;;;;9868222;30;20043;-84
2022/03/19 05:11:41;;;;;;;65.97;31.37;;;-2.50;74.30;;;;;;9852268;30;20078;-84
2022/03/19 05:16:42;;;;;;;64.30;26.67;;;-2.50;74.20;;;;;;9868145;30;20115;-83
2022/03/19 05:21:43;;;;;;;63.27;28.80;;;-2.50;74.20;;;;;;9850400;30;20058;-83
2022/03/19 05:26:43;;;;;;;75.60;30.33;;;-2.50;74.30;;;;;;9868058;30;20393;-83
2022/03/19 05:31:44;;;;;;;66.47;31.20;;;-2.40;74.50;;;;;;9868158;30;20392;-82
2022/03/19 05:36:45;;;;;;;69.17;31.77;;;-2.40;74.60;;;;;;9866651;30;20043;-83
2022/03/19 05:41:46;;;;;;;74.20;32.30;;;-2.40;75.00;;;;;;9848901;30;20498;-83
2022/03/19 05:46:48;;;;;;;70.80;27.90;;;-2.30;75.00;;;;;;9865703;30;20147;-83
2022/03/19 05:51:50;;;;;;;69.63;30.30;;;-2.20;74.80;;;;;;9867429;30;20043;-83
2022/03/19 05:56:52;;;;;;;70.97;29.30;;;-2.10;74.40;;;;;;9881492;30;20024;-82
2022/03/19 06:01:53;;;;;;;64.83;30.47;;;-1.90;74.30;;;;;;9867543;30;20051;-83
2022/03/19 06:06:54;;;;;;;75.13;30.20;;;-1.80;74.20;;;;;;9863778;29;20038;-83
2022/03/19 06:11:55;;;;;;;70.00;32.20;;;-1.70;74.10;;;;;;9873115;30;20035;-83
2022/03/19 06:16:56;;;;;;;71.70;31.20;;;-1.50;74.50;;;;;;9873342;30;20048;-82
2022/03/19 06:21:57;;;;;;;73.10;33.20;;;-1.40;74.40;;;;;;9865475;30;20043;-82
2022/03/19 06:26:58;;;;;;;64.93;28.67;;;-1.20;74.50;;;;;;9865763;30;20448;-82
2022/03/19 06:31:59;;;;;;;71.27;29.60;;;-1.10;74.00;;;;;;9865441;30;20461;-82
2022/03/19 06:42:20;;;;;;;61.07;28.70;;;-0.60;74.40;;;;;;9864606;30;20051;-85
2022/03/19 06:47:21;;;;;;;69.03;32.10;;;-0.40;74.00;;;;;;9864649;30;20051;-82
2022/03/19 06:52:24;;;;;;;68.97;30.13;;;-0.20;73.70;;;;;;9863895;30;20336;-82
2022/03/19 06:57:24;;;;;;;59.73;26.23;;;0.00;72.50;;;;;;9865104;30;20439;-81
2022/03/19 07:02:26;;;;;;;47.90;23.80;;;0.40;71.50;;;;;;9864477;30;20036;-81
2022/03/19 07:07:27;;;;;;;52.87;24.53;;;0.70;70.90;;;;;;9862814;30;20048;-81
2022/03/19 07:12:28;;;;;;;49.40;21.73;;;1.00;69.80;;;;;;9863872;30;20157;-81
2022/03/19 07:17:29;;;;;;;45.53;20.40;;;1.40;68.60;;;;;;9863324;30;20040;-81
2022/03/19 07:22:48;;;;;;;44.40;22.00;;;1.80;67.10;;;;;;9860217;30;20036;-84
2022/03/19 07:27:51;;;;;;;43.17;20.50;;;2.20;65.80;;;;;;9863420;30;20039;-83
2022/03/19 07:32:52;;;;;;;35.93;17.40;;;2.60;65.70;;;;;;9863025;30;20038;-84
2022/03/19 07:37:54;;;;;;;33.87;16.63;;;3.20;62.60;;;;;;9863157;30;20040;-83
2022/03/19 07:42:55;;;;;;;23.77;11.93;;;3.80;61.60;;;;;;9863528;30;20036;-81
2022/03/19 07:47:56;;;;;;;24.03;12.77;;;4.20;57.70;;;;;;9862626;30;20111;-81
2022/03/19 07:52:57;;;;;;;20.53;12.40;;;4.60;56.90;;;;;;9864420;30;20075;-81
2022/03/19 07:57:58;;;;;;;22.27;11.90;;;4.90;54.80;;;;;;9863590;30;20574;-84
2022/03/19 08:02:59;;;;;;;24.87;12.57;;;5.20;53.80;;;;;;9861240;30;20035;-81
2022/03/19 08:07:59;;;;;;;28.67;13.43;;;5.50;54.70;;;;;;9862535;30;20040;-81
2022/03/19 08:13:05;;;;;;;25.07;12.17;;;5.80;54.30;;;;;;9861658;30;20038;-83
2022/03/19 08:18:06;;;;;;;28.50;14.02;;;6.10;53.40;;;;;;9838953;30;20036;-86
2022/03/19 08:23:09;;;;;;;22.47;12.83;;;6.30;54.00;;;;;;9844422;30;20039;-87
2022/03/19 08:28:10;;;;;;;24.93;13.50;;;6.50;52.70;;;;;;9846492;30;20576;-86
2022/03/19 08:33:10;;;;;;;25.50;12.90;;;6.70;51.50;;;;;;9869185;30;20036;-84
2022/03/19 08:43:30;;;;;;;26.57;15.33;;;7.20;49.30;;;;;;9862592;30;20095;-85
2022/03/19 08:48:32;;;;;;;22.30;10.60;;;7.30;48.80;;;;;;9866156;30;20537;-83
2022/03/19 08:53:33;;;;;;;21.30;13.03;;;7.60;48.90;;;;;;9856983;30;20028;-83
2022/03/19 08:58:34;;;;;;;27.67;14.20;;;7.70;46.80;;;;;;9848261;30;20050;-85
2022/03/19 09:03:34;;;;;;;29.00;15.83;;;8.00;47.70;;;;;;9848276;30;20481;-84
2022/03/19 09:08:35;;;;;;;27.23;14.33;;;8.20;48.30;;;;;;9846183;30;20058;-83
2022/03/19 09:13:36;;;;;;;18.57;9.33;;;8.40;45.80;;;;;;9864282;30;20036;-84
2022/03/19 09:18:37;;;;;;;25.23;12.80;;;8.60;46.70;;;;;;9863676;30;20071;-86
2022/03/19 09:23:38;;;;;;;61.47;28.47;;;8.90;46.00;;;;;;9865764;30;20123;-86
2022/03/19 09:28:39;;;;;;;24.57;12.00;;;9.10;46.40;;;;;;9862618;30;20040;-83
2022/03/19 09:33:42;;;;;;;20.23;11.33;;;9.40;46.20;;;;;;9863609;30;20039;-82
2022/03/19 09:38:43;;;;;;;18.00;9.33;;;9.30;43.20;;;;;;9849123;30;20055;-84
2022/03/19 09:43:43;;;;;;;20.00;9.83;;;9.40;44.00;;;;;;9866131;30;20048;-82
2022/03/19 09:48:44;;;;;;;21.93;10.70;;;9.00;43.40;;;;;;9864986;30;20063;-82
2022/03/19 09:53:46;;;;;;;16.87;9.40;;;9.20;44.20;;;;;;9847696;30;20038;-83
2022/03/19 09:58:48;;;;;;;17.43;9.03;;;9.10;45.60;;;;;;9849813;30;20113;-82
2022/03/19 10:03:51;;;;;;;22.03;12.30;;;9.30;44.30;;;;;;9866366;30;20089;-83
2022/03/19 10:08:56;;;;;;;19.83;10.43;;;9.60;44.50;;;;;;9865576;30;20028;-83
2022/03/19 10:13:58;;;;;;;22.67;11.90;;;9.80;43.70;;;;;;9866111;30;20118;-83
2022/03/19 10:19:01;;;;;;;15.87;8.20;;;10.00;42.80;;;;;;9849298;30;20043;-85
2022/03/19 10:24:02;;;;;;;17.17;9.70;;;10.20;41.30;;;;;;9842071;30;20046;-83
2022/03/19 10:29:06;;;;;;;17.00;8.37;;;9.70;42.60;;;;;;9865992;30;20027;-84
2022/03/19 10:34:07;;;;;;;22.90;11.43;;;9.70;42.00;;;;;;9864606;30;20039;-83
2022/03/19 10:39:17;;;;;;;14.27;8.73;;;10.00;42.80;;;;;;9864825;30;20066;-83
2022/03/19 10:44:21;;;;;;;17.37;8.60;;;10.20;42.30;;;;;;9833450;30;20071;-83
2022/03/19 10:49:24;;;;;;;22.83;11.43;;;9.60;41.10;;;;;;9834711;30;20108;-83
2022/03/19 10:54:25;;;;;;;19.67;11.33;;;10.00;42.50;;;;;;9831593;30;20046;-83
2022/03/19 10:59:30;;;;;;;30.70;15.80;;;10.20;41.60;;;;;;9841401;30;20087;-82
2022/03/19 11:04:32;;;;;;;19.80;10.27;;;10.10;42.70;;;;;;9863197;30;20118;-81
2022/03/19 11:09:34;;;;;;;13.93;7.67;;;10.30;41.70;;;;;;9864427;30;20031;-81
2022/03/19 11:14:40;;;;;;;45.37;18.87;;;10.00;38.40;;;;;;9830741;30;20028;-81
2022/03/19 11:19:41;;;;;;;17.90;9.87;;;10.00;40.40;;;;;;9860544;30;20044;-82
2022/03/19 11:24:59;;;;;;;40.13;19.53;;;10.20;40.40;;;;;;9858156;30;20286;-81
2022/03/19 11:30:00;;;;;;;30.07;15.70;;;10.40;41.00;;;;;;9851586;30;20119;-85
2022/03/19 11:35:03;;;;;;;39.60;19.87;;;10.70;41.60;;;;;;9862742;30;20036;-84
2022/03/19 11:40:12;;;;;;;26.63;14.10;;;10.80;40.30;;;;;;9864441;30;20122;-85
2022/03/19 11:45:14;;;;;;;29.17;13.10;;;10.60;39.40;;;;;;9855554;30;20145;-84
2022/03/19 11:50:26;;;;;;;17.83;8.67;;;10.50;40.90;;;;;;9858705;30;20469;-85
2022/03/19 11:55:29;;;;;;;26.50;14.13;;;10.60;40.00;;;;;;9833096;30;20044;-83
2022/03/19 12:00:33;;;;;;;47.53;26.63;;;10.70;40.60;;;;;;9826431;30;20397;-83
2022/03/19 12:05:40;;;;;;;29.50;14.97;;;10.90;39.10;;;;;;9862929;30;20044;-86
2022/03/19 12:10:59;;;;;;;15.00;8.97;;;10.60;40.30;;;;;;9838018;30;20032;-85
2022/03/19 12:16:08;;;;;;;13.33;7.57;;;10.40;38.00;;;;;;9854822;30;20040;-82
2022/03/19 12:21:08;;;;;;;15.00;7.80;;;10.50;40.00;;;;;;9815752;30;20509;-83
2022/03/19 12:26:10;;;;;;;20.37;10.80;;;10.40;38.60;;;;;;9831917;30;20097;-84
2022/03/19 12:31:14;;;;;;;14.90;8.40;;;10.40;39.20;;;;;;9835442;30;20031;-84
2022/03/19 12:36:17;;;;;;;18.35;8.85;;;10.80;41.40;;;;;;9821025;30;20040;-84
2022/03/19 12:41:29;;;;;;;14.82;8.90;;;11.20;41.40;;;;;;9828595;30;20524;-84
2022/03/19 12:46:37;;;;;;;16.53;8.73;;;11.10;39.00;;;;;;9823492;30;20083;-85
2022/03/19 12:52:26;;;;;;;13.13;8.20;;;11.00;40.20;;;;;;9849485;30;20044;-82
2022/03/19 12:57:36;;;;;;;16.55;8.00;;;11.10;41.40;;;;;;9828451;30;20520;-83
2022/03/19 13:09:22;;;;;;;26.60;13.03;;;10.60;39.00;;;;;;9838233;30;20044;-84
2022/03/19 13:21:00;;;;;;;25.33;11.77;;;11.10;40.60;;;;;;9588018;30;20127;-84
2022/03/19 13:26:03;;;;;;;21.60;11.10;;;10.80;40.70;;;;;;9733398;30;20045;-83
2022/03/19 13:31:03;;;;;;;25.90;12.52;;;11.00;40.40;;;;;;9765522;30;20117;-83
2022/03/19 13:36:08;;;;;;;14.23;8.75;;;11.10;40.70;;;;;;9753453;30;20128;-83
2022/03/19 13:41:18;;;;;;;16.67;8.30;;;11.10;38.30;;;;;;9752341;30;20534;-82
2022/03/19 13:46:22;;;;;;;21.40;11.50;;;10.50;37.70;;;;;;9848469;30;20055;-83
2022/03/19 13:51:22;;;;;;;23.37;11.37;;;10.40;38.90;;;;;;9835342;30;20052;-83
2022/03/19 13:56:23;;;;;;;28.87;14.70;;;10.60;39.40;;;;;;9829570;30;20089;-83
2022/03/19 14:02:01;;;;;;;26.50;12.70;;;10.70;39.60;;;;;;9829744;30;20165;-84
2022/03/19 14:13:22;;;;;;;13.77;8.10;;;10.40;39.00;;;;;;9642528;30;20055;-85
2022/03/19 14:18:24;;;;;;;19.33;10.17;;;10.10;38.30;;;;;;9817881;30;20052;-85
2022/03/19 14:23:25;;;;;;;17.50;8.77;;;10.20;38.50;;;;;;9816562;30;20067;-85
2022/03/19 14:28:26;;;;;;;23.60;13.20;;;10.00;38.60;;;;;;9862899;30;20039;-85
2022/03/19 14:33:28;;;;;;;39.73;19.07;;;9.90;39.50;;;;;;9835810;30;20048;-85
2022/03/19 14:38:55;;;;;;;27.70;14.67;;;10.10;40.70;;;;;;9827702;30;20387;-85
2022/03/19 14:44:57;;;;;;;;;;;;;;;;;;;;;
2022/03/19 14:56:07;;;;;;;28.63;14.00;;;9.50;40.90;;;;;;9826871;30;20525;-85
2022/03/19 15:01:29;;;;;;;26.00;11.70;;;9.50;41.00;;;;;;9809218;30;20456;-84
2022/03/19 15:07:04;;;;;;;;;;;;;;;;;;;;;
2022/03/19 15:12:07;;;;;;;47.33;21.10;;;9.20;40.60;;;;;;9818968;30;20032;-85
2022/03/19 15:23:05;;;;;;;35.15;14.85;;;9.10;40.80;;;;;;9823522;30;20078;-83
2022/03/19 15:28:10;;;;;;;26.73;11.63;;;8.90;41.60;;;;;;9823477;30;20032;-85
2022/03/19 15:33:15;;;;;;;29.60;12.93;;;8.80;42.50;;;;;;9822305;30;20036;-85
2022/03/19 15:38:41;;;;;;;23.80;10.70;;;8.60;42.90;;;;;;9820721;30;20040;-83
2022/03/19 15:50:58;;;;;;;103.47;39.55;;;8.50;42.70;;;;;;9859840;30;20063;-84
2022/03/19 15:55:59;;;;;;;36.17;17.30;;;8.20;42.40;;;;;;9867732;30;20040;-86
2022/03/19 16:01:00;;;;;;;35.57;15.60;;;8.10;43.00;;;;;;9868841;30;20051;-84
2022/03/19 16:06:01;;;;;;;30.30;18.43;;;8.00;42.70;;;;;;9866487;30;20126;-85
2022/03/19 16:11:02;;;;;;;40.27;21.87;;;7.80;42.60;;;;;;9865225;30;20127;-84
2022/03/19 16:16:03;;;;;;;109.77;65.20;;;7.70;43.30;;;;;;9849289;30;20046;-83
2022/03/19 16:21:03;;;;;;;331.73;182.27;;;7.70;43.40;;;;;;9865392;30;20058;-84
2022/03/19 16:26:04;;;;;;;434.37;217.97;;;7.50;42.80;;;;;;9865367;30;20043;-84
2022/03/19 16:31:05;;;;;;;453.87;220.17;;;7.30;43.60;;;;;;9849196;30;20119;-84
2022/03/19 16:36:59;;;;;;;436.30;226.87;;;7.20;43.60;;;;;;9866445;30;20043;-83
2022/03/19 16:42:00;;;;;;;82.47;43.23;;;7.00;44.30;;;;;;9866410;30;20051;-85
2022/03/19 16:47:01;;;;;;;28.63;13.33;;;6.80;44.00;;;;;;9866850;30;20047;-85
2022/03/19 16:52:34;;;;;;;29.03;12.37;;;6.70;44.00;;;;;;9850048;30;20076;-84
2022/03/19 16:57:56;;;;;;;28.80;13.27;;;6.50;44.30;;;;;;9864937;30;20122;-84
2022/03/19 17:02:57;;;;;;;25.60;12.00;;;6.30;44.90;;;;;;9863555;30;20158;-84
2022/03/19 17:07:58;;;;;;;18.60;9.60;;;6.10;45.20;;;;;;9862789;30;20042;-84
2022/03/19 17:12:58;;;;;;;20.57;10.03;;;5.90;45.60;;;;;;9863185;30;20043;-83
2022/03/19 17:18:00;;;;;;;20.87;10.60;;;5.70;47.20;;;;;;9855492;30;20055;-84
2022/03/19 17:23:01;;;;;;;23.23;10.83;;;5.50;47.00;;;;;;9860790;30;20448;-88
2022/03/19 17:28:01;;;;;;;24.50;11.93;;;5.30;48.00;;;;;;9860610;30;20066;-86
2022/03/19 17:33:03;;;;;;;23.93;12.23;;;4.90;49.10;;;;;;9847583;30;20088;-87
2022/03/19 17:38:04;;;;;;;26.67;13.27;;;4.60;49.70;;;;;;9843797;30;20115;-86
2022/03/19 17:43:06;;;;;;;28.60;14.63;;;4.60;49.80;;;;;;9844410;30;20138;-86
2022/03/19 17:48:06;;;;;;;29.80;13.47;;;4.60;50.00;;;;;;9863205;30;20035;-86
2022/03/19 17:53:07;;;;;;;32.03;15.03;;;4.60;50.40;;;;;;9861600;30;20063;-87
2022/03/19 17:58:08;;;;;;;26.40;13.30;;;4.60;50.40;;;;;;9864314;30;20038;-87
2022/03/19 18:03:09;;;;;;;28.17;14.80;;;4.60;50.80;;;;;;9848093;30;20051;-86
2022/03/19 18:08:10;;;;;;;27.00;12.93;;;4.60;50.90;;;;;;9849481;30;20069;-85
2022/03/19 18:13:11;;;;;;;32.33;14.87;;;4.50;51.40;;;;;;9864705;30;20032;-85
2022/03/19 18:18:11;;;;;;;28.97;14.10;;;4.50;51.70;;;;;;9865656;30;20429;-85
2022/03/19 18:23:12;;;;;;;30.80;15.57;;;4.40;52.20;;;;;;9865466;30;20059;-84
2022/03/19 18:28:13;;;;;;;32.40;16.50;;;4.40;52.60;;;;;;9865603;30;20499;-85
2022/03/19 18:33:15;;;;;;;31.57;14.43;;;4.40;53.10;;;;;;9864890;30;20059;-84
2022/03/19 18:38:16;;;;;;;35.43;16.10;;;4.30;53.20;;;;;;9849147;30;20035;-85
2022/03/19 18:43:17;;;;;;;33.93;16.03;;;4.30;53.40;;;;;;9864232;30;20383;-85
2022/03/19 18:48:18;;;;;;;35.87;16.60;;;4.20;53.50;;;;;;9863425;30;20035;-83
2022/03/19 18:53:18;;;;;;;32.17;15.43;;;4.10;54.00;;;;;;9848614;30;20055;-83
2022/03/19 18:58:19;;;;;;;38.97;17.87;;;4.00;54.00;;;;;;9848819;30;20382;-85
2022/03/19 19:03:20;;;;;;;36.63;17.87;;;4.00;54.40;;;;;;9864250;30;20043;-84
2022/03/19 19:08:21;;;;;;;31.00;14.97;;;3.80;54.70;;;;;;9864509;30;20070;-83
2022/03/19 19:13:22;;;;;;;29.70;14.23;;;3.80;54.90;;;;;;9864268;30;20097;-83
2022/03/19 19:18:22;;;;;;;32.37;14.73;;;3.70;55.10;;;;;;9864782;30;20047;-85
2022/03/19 19:23:23;;;;;;;94.80;46.70;;;3.70;55.00;;;;;;9863717;30;20051;-84
2022/03/19 19:28:25;;;;;;;76.67;38.37;;;3.60;55.20;;;;;;9846884;30;20046;-84
2022/03/19 19:33:25;;;;;;;33.97;17.37;;;3.50;55.60;;;;;;9863974;30;20043;-82
2022/03/19 19:38:27;;;;;;;35.70;19.33;;;3.40;56.30;;;;;;9862281;30;20044;-80
2022/03/19 19:43:28;;;;;;;35.37;18.40;;;3.30;56.50;;;;;;9838198;30;20081;-84
2022/03/19 19:48:36;;;;;;;42.47;19.80;;;3.10;56.70;;;;;;9846646;30;20067;-84
2022/03/19 19:53:36;;;;;;;42.57;18.80;;;3.00;57.20;;;;;;9862346;30;20056;-84
2022/03/19 19:58:40;;;;;;;40.13;19.33;;;2.90;57.50;;;;;;9856988;30;20075;-84
2022/03/19 20:03:40;;;;;;;43.17;18.33;;;2.80;57.70;;;;;;9862386;30;20028;-84
2022/03/19 20:08:41;;;;;;;45.17;20.67;;;2.70;58.80;;;;;;9863793;30;20483;-85
2022/03/19 20:13:42;;;;;;;39.37;20.33;;;2.70;58.90;;;;;;9846562;30;20031;-84
2022/03/19 20:18:42;;;;;;;57.13;24.30;;;2.70;59.40;;;;;;9846400;30;20409;-82
2022/03/19 20:23:43;;;;;;;34.83;17.37;;;2.70;59.30;;;;;;9862843;30;20104;-82
2022/03/19 20:28:44;;;;;;;43.30;20.10;;;2.80;59.70;;;;;;9868000;30;20516;-83
2022/03/19 20:33:45;;;;;;;47.90;23.00;;;2.90;59.30;;;;;;9865884;30;20036;-82
2022/03/19 20:38:47;;;;;;;41.47;20.27;;;3.00;59.70;;;;;;9865490;30;20607;-83
2022/03/19 20:43:47;;;;;;;34.23;16.13;;;2.90;59.70;;;;;;9868777;30;20413;-83
2022/03/19 20:48:48;;;;;;;33.10;17.20;;;2.90;59.50;;;;;;9849424;30;20044;-83
2022/03/19 20:53:49;;;;;;;32.97;16.53;;;2.90;59.40;;;;;;9866558;30;20056;-85
2022/03/19 20:58:50;;;;;;;35.97;17.23;;;2.90;59.10;;;;;;9841926;30;20074;-85
2022/03/19 21:03:51;;;;;;;37.20;17.43;;;3.00;59.10;;;;;;9868406;30;20074;-85
2022/03/19 21:08:55;;;;;;;39.53;18.77;;;2.90;59.10;;;;;;9867366;30;20063;-85
2022/03/19 21:13:55;;;;;;;32.73;16.33;;;2.90;59.10;;;;;;9869284;30;20039;-86
2022/03/19 21:18:56;;;;;;;38.90;16.97;;;2.80;59.30;;;;;;9867287;30;20042;-85
2022/03/19 21:23:58;;;;;;;36.50;17.40;;;2.90;59.10;;;;;;9867256;30;20040;-84
2022/03/19 21:28:59;;;;;;;44.27;19.27;;;2.80;59.40;;;;;;9868094;30;20050;-84
2022/03/19 21:34:01;;;;;;;38.23;18.53;;;2.70;59.30;;;;;;9867481;30;20619;-84
2022/03/19 21:44:21;;;;;;;37.13;18.83;;;2.50;59.50;;;;;;9866974;30;20043;-85
2022/03/19 21:49:22;;;;;;;38.87;18.50;;;2.40;60.30;;;;;;9850787;30;20051;-84
2022/03/19 21:54:23;;;;;;;39.93;19.17;;;2.20;60.10;;;;;;9819154;30;20048;-85
2022/03/19 21:59:24;;;;;;;46.67;20.17;;;2.20;61.00;;;;;;9814668;30;20036;-83
2022/03/19 22:04:25;;;;;;;41.80;17.97;;;2.00;61.20;;;;;;9833162;30;20038;-84
2022/03/19 22:09:26;;;;;;;44.60;18.93;;;2.00;61.20;;;;;;9834323;30;20035;-84
2022/03/19 22:14:27;;;;;;;46.63;19.20;;;1.90;61.10;;;;;;9829690;30;20043;-84
2022/03/19 22:24:46;;;;;;;37.73;18.87;;;1.80;61.60;;;;;;9829737;30;20052;-85
2022/03/19 22:29:47;;;;;;;40.07;17.83;;;1.70;61.60;;;;;;9829754;30;20040;-84
2022/03/19 22:34:48;;;;;;;38.13;18.07;;;1.70;61.70;;;;;;9829659;30;20047;-84
2022/03/19 22:39:49;;;;;;;37.53;18.43;;;1.70;61.80;;;;;;9848484;30;20052;-84
2022/03/19 22:44:51;;;;;;;40.43;17.43;;;1.70;61.90;;;;;;9834543;30;20035;-85
2022/03/19 22:49:52;;;;;;;36.70;17.67;;;1.60;61.90;;;;;;9854071;30;20051;-84
2022/03/19 22:54:55;;;;;;;38.30;18.10;;;1.40;62.30;;;;;;9865362;30;20046;-84
2022/03/19 22:59:56;;;;;;;39.70;18.33;;;1.40;62.70;;;;;;9864195;30;20031;-84
2022/03/19 23:04:56;;;;;;;42.23;17.70;;;1.40;62.60;;;;;;9848131;30;20054;-84
2022/03/19 23:09:57;;;;;;;42.97;18.93;;;1.40;62.70;;;;;;9864650;30;20089;-85
2022/03/19 23:14:58;;;;;;;41.97;18.13;;;1.40;62.90;;;;;;9863753;30;20444;-84
2022/03/19 23:19:59;;;;;;;42.13;17.53;;;1.30;63.00;;;;;;9863633;30;20035;-85
2022/03/19 23:24:59;;;;;;;35.90;16.43;;;1.20;63.00;;;;;;9864501;30;20049;-84
2022/03/19 23:30:00;;;;;;;40.97;17.70;;;1.20;62.90;;;;;;9847718;30;20110;-85
2022/03/19 23:40:20;;;;;;;41.17;17.20;;;1.10;63.10;;;;;;9832010;30;20056;-84
2022/03/19 23:45:21;;;;;;;38.90;16.80;;;1.10;63.20;;;;;;9863643;30;20047;-84
2022/03/19 23:50:22;;;;;;;38.93;17.67;;;1.00;63.50;;;;;;9863254;30;20052;-85
2022/03/19 23:55:23;;;;;;;36.77;17.47;;;1.00;63.50;;;;;;9847854;30;20572;-84
